Pinecraft, Florida
Current Conditions -  °F | °C
As of 10:53 PM on Friday 24 Oct 2014 (Local Time) from KSRQ Reporting Station
Few Clouds Few Clouds  
Wind Chill: 68°   Ceiling: Unl
Heat Index: 68°   Visibility: 10mi
Dew Point: 60°   Wind: 6mph
Humidity: 76%   Direction: 10°N
Pressure: 29.96"   Gusts: NA
Location:  27.3356°N, 82.5364°W
Report Text: KSRQ 250253Z 01005KT 10SM FEW049 20/16 A2996 RMK AO2 SLP144 T02000156 53023
Loading
Personal Weather Stations






























Interactive Weather Map
Tropical Storm Tracking
New forecast layout! Learn more

10-Day Weather Forecast

Advertisements
Track Severe Weather on mobile